Time;durP1;ratioP1;P1;durP2;ratioP2;P2;SDS_P1;SDS_P2;PMS_P1;PMS_P2;Temp;Humidity;BMP_temperature;BMP_pressure;BME280_temperature;BME280_humidity;BME280_pressure;Samples;Min_cycle;Max_cycle;Signal;HPM_P1;HPM_P2
2022/06/19 00:00:51;;;;;;;4.70;1.50;;;;;;;21.69;92.10;100180.84;5218955;28;20045;-73
2022/06/19 00:03:45;;;;;;;4.15;1.50;;;;;;;21.79;91.91;100168.41;5228071;28;20433;-73
2022/06/19 00:06:16;;;;;;;2.78;1.40;;;;;;;21.58;93.52;100170.25;5225551;28;20033;-72
2022/06/19 00:08:48;;;;;;;2.67;1.60;;;;;;;21.64;93.09;100163.59;5196161;28;20074;-72
2022/06/19 00:11:20;;;;;;;5.03;1.60;;;;;;;21.54;93.41;100152.88;5229200;28;20056;-73
2022/06/19 00:13:50;;;;;;;6.60;1.70;;;;;;;21.63;92.93;100151.25;5230592;28;20031;-72
2022/06/19 00:16:20;;;;;;;3.67;1.40;;;;;;;21.48;93.90;100148.09;5228844;28;20554;-72
2022/06/19 00:18:51;;;;;;;6.22;1.83;;;;;;;21.58;93.34;100137.50;5224568;28;20449;-72
2022/06/19 00:21:21;;;;;;;3.58;1.60;;;;;;;21.49;93.39;100138.28;5226259;28;20041;-73
2022/06/19 00:23:52;;;;;;;5.05;1.50;;;;;;;21.29;95.09;100139.19;5231806;28;20478;-73
2022/06/19 00:26:22;;;;;;;3.70;1.90;;;;;;;21.27;94.79;100127.84;5212549;28;20036;-73
2022/06/19 00:28:52;;;;;;;4.03;1.70;;;;;;;21.25;94.87;100114.66;5224726;28;20032;-73
2022/06/19 00:31:23;;;;;;;3.40;1.80;;;;;;;21.30;94.84;100106.28;5221920;28;20025;-73
2022/06/19 00:33:55;;;;;;;8.55;1.85;;;;;;;21.18;95.12;100094.91;5211687;28;20326;-73
2022/06/19 00:36:26;;;;;;;4.22;1.73;;;;;;;21.14;94.70;100092.66;5220688;28;20025;-73
2022/06/19 00:38:57;;;;;;;7.50;1.60;;;;;;;21.19;94.42;100099.25;5208414;28;20039;-73
2022/06/19 00:41:39;;;;;;;4.35;1.52;;;;;;;21.47;92.92;100087.91;5212669;28;20037;-73
2022/06/19 00:44:12;;;;;;;3.78;1.58;;;;;;;21.29;94.37;100086.84;5224960;28;20048;-73
2022/06/19 00:46:45;;;;;;;2.42;1.58;;;;;;;21.21;94.25;100081.34;5231611;28;20029;-73
2022/06/19 00:49:23;;;;;;;3.65;1.40;;;;;;;21.18;94.76;100078.09;5230789;28;20103;-72
2022/06/19 00:52:24;;;;;;;3.53;1.40;;;;;;;21.33;93.48;100074.97;5230214;28;20021;-73
2022/06/19 00:55:02;;;;;;;2.55;1.20;;;;;;;21.35;93.43;100077.47;5232285;28;20032;-73
2022/06/19 00:57:36;;;;;;;5.53;1.60;;;;;;;21.33;93.52;100066.13;5214130;28;20031;-72
2022/06/19 01:00:11;;;;;;;6.25;1.50;;;;;;;21.24;94.27;100061.66;5224083;28;20048;-73
2022/06/19 01:02:44;;;;;;;5.60;1.63;;;;;;;21.35;93.18;100041.09;5231829;28;20393;-73
2022/06/19 01:05:16;;;;;;;6.00;1.55;;;;;;;21.02;95.75;100048.50;5214676;28;20029;-73
2022/06/19 01:07:46;;;;;;;4.70;2.03;;;;;;;20.98;95.49;100041.78;5234276;28;20024;-72
2022/06/19 01:10:17;;;;;;;4.20;1.95;;;;;;;20.88;97.69;100038.25;5232904;28;20743;-73
2022/06/19 01:12:47;;;;;;;3.85;1.98;;;;;;;20.82;98.07;100031.63;5235089;28;20032;-73
2022/06/19 01:15:22;;;;;;;6.85;2.03;;;;;;;20.71;98.99;100022.91;5232698;28;20028;-73
2022/06/19 01:17:57;;;;;;;4.83;1.73;;;;;;;20.71;99.12;100028.22;5234829;28;20037;-72
2022/06/19 01:20:31;;;;;;;5.97;2.08;;;;;;;20.69;99.28;100014.22;5232280;28;20247;-73
2022/06/19 01:23:32;;;;;;;6.00;2.28;;;;;;;20.72;99.60;100008.63;5234649;28;20205;-73
2022/06/19 01:26:02;;;;;;;4.53;2.20;;;;;;;20.68;98.62;100017.81;5233848;28;20538;-73
2022/06/19 01:28:54;;;;;;;4.57;2.00;;;;;;;20.58;100.00;100001.00;5227002;28;20028;-73
2022/06/19 01:31:36;;;;;;;5.07;1.85;;;;;;;20.55;99.84;99984.50;5223500;28;20033;-74
2022/06/19 01:34:35;;;;;;;3.85;2.08;;;;;;;20.39;100.00;99992.94;5231522;28;20102;-73
2022/06/19 01:37:17;;;;;;;4.63;1.90;;;;;;;20.30;100.00;99975.13;5233926;28;20039;-73
2022/06/19 01:39:54;;;;;;;3.83;2.13;;;;;;;20.24;100.00;99974.78;5229424;28;20025;-73
2022/06/19 01:42:25;;;;;;;5.20;1.95;;;;;;;20.24;100.00;99969.47;5233358;28;20051;-73
2022/06/19 01:44:56;;;;;;;6.40;2.40;;;;;;;20.06;100.00;99976.34;5234023;28;20431;-73
2022/06/19 01:47:27;;;;;;;4.85;2.10;;;;;;;20.13;100.00;99978.34;5227294;28;20028;-72
2022/06/19 01:50:00;;;;;;;4.75;1.70;;;;;;;20.25;100.00;99968.50;5221109;28;20029;-73
2022/06/19 01:52:31;;;;;;;3.72;1.90;;;;;;;20.22;100.00;99966.97;5216663;28;20032;-73
2022/06/19 01:55:08;;;;;;;5.07;1.92;;;;;;;20.08;100.00;99966.44;5221733;28;20079;-73
2022/06/19 01:57:42;;;;;;;5.82;2.08;;;;;;;20.06;100.00;99961.28;5209966;28;20027;-74
2022/06/19 02:00:18;;;;;;;7.18;1.92;;;;;;;19.94;100.00;99959.59;5226938;28;20343;-73
2022/06/19 02:03:12;;;;;;;5.80;1.83;;;;;;;20.02;100.00;99943.09;5227181;28;20032;-73
2022/06/19 02:05:42;;;;;;;5.30;1.90;;;;;;;20.04;100.00;99942.00;5226753;28;20041;-73
2022/06/19 02:08:15;;;;;;;5.38;1.92;;;;;;;20.10;100.00;99938.81;5230090;28;20409;-73
2022/06/19 02:10:47;;;;;;;7.13;1.92;;;;;;;20.18;100.00;99935.50;5229601;28;20128;-73
2022/06/19 02:13:19;;;;;;;3.97;1.70;;;;;;;20.24;100.00;99927.00;5229289;28;20710;-73
2022/06/19 02:15:52;;;;;;;4.00;1.52;;;;;;;20.12;100.00;99923.59;5226851;28;20486;-73
2022/06/19 02:18:28;;;;;;;3.85;1.90;;;;;;;19.81;100.00;99924.47;5225267;28;20032;-73
2022/06/19 02:20:58;;;;;;;4.30;1.98;;;;;;;20.00;100.00;99929.94;5225237;28;20086;-74
2022/06/19 02:23:32;;;;;;;3.58;1.83;;;;;;;20.12;100.00;99915.63;5229214;28;20040;-73
2022/06/19 02:26:05;;;;;;;3.38;1.80;;;;;;;20.15;100.00;99914.53;5212403;28;20020;-73
2022/06/19 02:28:39;;;;;;;3.45;1.80;;;;;;;20.33;100.00;99907.66;5228279;28;20108;-73
2022/06/19 02:31:10;;;;;;;4.63;1.80;;;;;;;20.20;100.00;99909.69;5223163;28;20552;-73
2022/06/19 02:33:46;;;;;;;5.30;2.38;;;;;;;20.39;100.00;99894.72;5230875;28;20078;-71
2022/06/19 02:36:31;;;;;;;3.28;1.92;;;;;;;20.33;100.00;99881.13;5213359;28;20056;-72
2022/06/19 02:39:13;;;;;;;4.63;2.03;;;;;;;19.98;100.00;99873.47;5228933;28;20028;-73
2022/06/19 02:41:53;;;;;;;4.43;1.90;;;;;;;20.07;100.00;99874.53;5224526;28;20353;-73
2022/06/19 02:44:48;;;;;;;6.68;2.10;;;;;;;20.09;100.00;99849.56;5216375;28;20028;-73
2022/06/19 02:47:21;;;;;;;4.55;1.65;;;;;;;20.23;99.04;99851.03;5215302;28;20024;-72
2022/06/19 02:49:52;;;;;;;5.18;1.73;;;;;;;19.85;99.71;99859.59;5217934;28;20025;-73
2022/06/19 02:52:22;;;;;;;4.18;1.85;;;;;;;19.68;100.00;99860.19;5219057;28;20036;-73
2022/06/19 02:54:53;;;;;;;3.00;1.80;;;;;;;19.41;100.00;99857.16;5213090;28;20029;-72
2022/06/19 02:57:25;;;;;;;4.22;1.83;;;;;;;19.78;100.00;99861.06;5222441;28;20127;-73
2022/06/19 02:59:56;;;;;;;6.47;2.00;;;;;;;19.92;100.00;99858.09;5223109;28;20025;-73
2022/06/19 03:02:28;;;;;;;3.67;1.90;;;;;;;20.07;100.00;99859.47;5226671;28;20029;-73
2022/06/19 03:05:01;;;;;;;6.28;2.65;;;;;;;20.20;100.00;99854.81;5224519;28;20051;-73
2022/06/19 03:07:32;;;;;;;5.25;2.10;;;;;;;20.15;100.00;99842.91;5223762;28;20024;-73
2022/06/19 03:10:03;;;;;;;6.13;2.38;;;;;;;20.21;100.00;99845.00;5224321;28;20058;-73
2022/06/19 03:12:33;;;;;;;4.93;2.03;;;;;;;20.35;100.00;99834.91;5227667;28;20541;-73
2022/06/19 03:15:04;;;;;;;4.28;1.88;;;;;;;20.41;100.00;99834.34;5227134;28;20086;-72
2022/06/19 03:17:35;;;;;;;7.13;2.20;;;;;;;20.31;100.00;99832.63;5224650;28;20029;-73
2022/06/19 03:20:07;;;;;;;3.40;1.88;;;;;;;20.14;100.00;99825.28;5222909;28;20021;-73
2022/06/19 03:22:37;;;;;;;5.15;1.85;;;;;;;20.26;100.00;99825.06;5228777;28;20363;-73
2022/06/19 03:25:08;;;;;;;3.08;1.55;;;;;;;20.29;100.00;99824.78;5227034;28;20020;-73
2022/06/19 03:27:38;;;;;;;6.05;2.10;;;;;;;20.43;100.00;99827.09;5228101;28;20117;-73
2022/06/19 03:30:12;;;;;;;7.00;2.10;;;;;;;20.31;100.00;99822.03;5222191;28;20009;-72
2022/06/19 03:32:42;;;;;;;3.47;1.80;;;;;;;20.31;100.00;99812.22;5206069;28;20027;-73
2022/06/19 03:35:14;;;;;;;4.72;2.10;;;;;;;20.21;100.00;99811.38;5208242;28;20029;-71
2022/06/19 03:37:46;;;;;;;4.10;1.83;;;;;;;20.23;100.00;99804.09;5227486;28;20391;-72
2022/06/19 03:40:17;;;;;;;4.50;1.90;;;;;;;20.36;100.00;99802.06;5230815;28;20040;-72
2022/06/19 03:42:47;;;;;;;5.38;1.90;;;;;;;20.35;100.00;99805.69;5229111;28;20697;-72
2022/06/19 03:45:17;;;;;;;3.83;2.20;;;;;;;20.54;99.32;99808.41;5231457;28;20029;-71
2022/06/19 03:47:48;;;;;;;5.43;1.55;;;;;;;20.28;100.00;99806.38;5229055;28;20048;-72
2022/06/19 03:50:18;;;;;;;5.80;1.90;;;;;;;20.26;100.00;99795.88;5230665;28;20043;-72
2022/06/19 03:52:48;;;;;;;4.85;1.75;;;;;;;19.95;100.00;99788.84;5211944;28;20025;-72
2022/06/19 03:55:19;;;;;;;5.90;2.08;;;;;;;20.15;100.00;99780.03;5230499;28;20037;-72
2022/06/19 03:57:49;;;;;;;3.75;1.63;;;;;;;20.14;100.00;99778.34;5228617;28;20025;-72
2022/06/19 04:00:20;;;;;;;3.42;1.67;;;;;;;20.44;98.49;99769.53;5219832;28;20035;-72
2022/06/19 04:02:50;;;;;;;7.15;1.90;;;;;;;20.48;97.89;99766.44;5228470;28;20031;-72
2022/06/19 04:05:20;;;;;;;6.60;2.10;;;;;;;20.65;96.52;99770.28;5229427;28;20060;-73
2022/06/19 04:07:51;;;;;;;4.07;1.98;;;;;;;20.56;96.81;99776.41;5229999;28;20028;-73
2022/06/19 04:10:21;;;;;;;3.28;1.58;;;;;;;20.59;96.64;99766.34;5229603;28;20048;-71
2022/06/19 04:12:53;;;;;;;3.47;1.85;;;;;;;20.73;96.23;99756.16;5231622;28;20069;-72
2022/06/19 04:15:23;;;;;;;5.30;1.73;;;;;;;20.44;98.39;99745.66;5229568;28;20419;-73
2022/06/19 04:17:53;;;;;;;7.82;2.00;;;;;;;20.49;97.94;99740.75;5231665;28;20163;-73
2022/06/19 04:20:24;;;;;;;4.63;1.77;;;;;;;20.67;96.08;99739.94;5229616;28;20313;-72
2022/06/19 04:22:54;;;;;;;5.13;2.00;;;;;;;20.96;95.43;99740.81;5230562;28;20171;-73
2022/06/19 04:25:25;;;;;;;6.20;1.60;;;;;;;20.65;97.35;99741.06;5229526;28;20033;-73
2022/06/19 04:27:56;;;;;;;5.47;1.80;;;;;;;20.96;95.20;99738.16;5229687;28;20397;-73
2022/06/19 04:30:27;;;;;;;2.58;1.65;;;;;;;20.93;94.76;99747.25;5223277;28;20025;-73
2022/06/19 04:32:57;;;;;;;3.75;1.63;;;;;;;20.94;93.98;99742.78;5231566;28;20024;-73
2022/06/19 04:35:27;;;;;;;4.10;1.67;;;;;;;21.19;91.68;99737.75;5195222;28;1134891;-73
2022/06/19 04:37:57;;;;;;;3.58;1.60;;;;;;;20.91;94.63;99725.28;5233459;28;20512;-73
2022/06/19 04:40:28;;;;;;;2.78;1.60;;;;;;;21.40;93.35;99727.75;5234889;28;20536;-73
2022/06/19 04:42:59;;;;;;;3.17;1.50;;;;;;;21.85;89.38;99725.28;5233893;28;20124;-72
2022/06/19 04:45:29;;;;;;;4.57;1.58;;;;;;;22.05;88.59;99721.59;5235367;28;20116;-73
2022/06/19 04:48:00;;;;;;;3.60;1.60;;;;;;;22.62;85.87;99731.91;5235814;28;20027;-73
2022/06/19 04:50:30;;;;;;;3.97;1.70;;;;;;;22.83;84.86;99725.31;5232973;28;20029;-73
2022/06/19 04:53:00;;;;;;;3.03;1.40;;;;;;;23.66;80.76;99726.50;5235391;28;20381;-73
2022/06/19 04:55:31;;;;;;;2.60;1.35;;;;;;;24.22;78.38;99726.81;5233491;28;20261;-73
2022/06/19 04:58:03;;;;;;;4.00;1.60;;;;;;;24.76;75.82;99721.81;5232796;28;20031;-73
2022/06/19 05:00:34;;;;;;;3.55;1.50;;;;;;;25.15;76.48;99730.06;5223937;28;20483;-72
2022/06/19 05:03:04;;;;;;;3.63;1.40;;;;;;;25.78;72.92;99713.09;5232149;28;20028;-72
2022/06/19 05:05:34;;;;;;;2.55;1.30;;;;;;;25.82;73.83;99710.94;5235573;28;20052;-73
2022/06/19 05:08:04;;;;;;;2.10;1.30;;;;;;;25.59;73.46;99697.44;5232372;28;20548;-74
2022/06/19 05:10:35;;;;;;;6.03;1.50;;;;;;;25.04;75.58;99684.91;5234887;28;20056;-72
2022/06/19 05:13:06;;;;;;;2.97;1.50;;;;;;;26.01;72.89;99676.56;5232860;28;20059;-72
2022/06/19 05:15:36;;;;;;;4.45;1.48;;;;;;;26.13;72.44;99675.16;5235899;28;20035;-73
2022/06/19 05:18:07;;;;;;;4.15;1.83;;;;;;;26.84;70.99;99670.41;5234994;28;20045;-72
2022/06/19 05:20:38;;;;;;;2.45;1.30;;;;;;;26.90;70.07;99670.53;5231988;28;20045;-72
2022/06/19 05:23:09;;;;;;;3.03;1.40;;;;;;;26.65;71.82;99670.06;5235949;28;20020;-73
2022/06/19 05:25:39;;;;;;;2.85;1.35;;;;;;;26.70;71.16;99675.72;5230954;28;20033;-72
2022/06/19 05:28:10;;;;;;;4.18;1.60;;;;;;;26.89;70.54;99679.59;5231989;28;20075;-73
2022/06/19 05:30:40;;;;;;;3.63;1.48;;;;;;;26.50;72.87;99672.66;5223670;28;20070;-73
2022/06/19 05:33:10;;;;;;;5.87;1.83;;;;;;;27.02;69.98;99673.59;5231909;28;20086;-73
2022/06/19 05:35:40;;;;;;;2.80;1.50;;;;;;;27.03;69.72;99665.38;5235170;28;20270;-72
2022/06/19 05:38:12;;;;;;;3.93;1.60;;;;;;;27.52;70.43;99671.16;5230533;28;20025;-73
2022/06/19 05:40:43;;;;;;;2.97;1.50;;;;;;;28.09;68.57;99691.84;5216264;28;20286;-73
2022/06/19 05:43:13;;;;;;;3.53;1.63;;;;;;;27.52;69.78;99717.66;5234070;28;20032;-73
2022/06/19 05:45:55;;;;;;;4.72;1.63;;;;;;;26.06;73.08;99733.16;5235094;28;20382;-72
2022/06/19 05:48:26;;;;;;;3.00;1.40;;;;;;;26.24;73.67;99695.38;5234242;28;20520;-72
2022/06/19 05:51:18;;;;;;;3.28;1.55;;;;;;;26.12;72.47;99678.88;5228765;28;20055;-72
2022/06/19 05:53:54;;;;;;;2.78;1.50;;;;;;;26.56;72.09;99701.44;5229800;28;20402;-72
2022/06/19 05:56:27;;;;;;;3.97;1.60;;;;;;;25.91;74.46;99739.38;5233367;28;20033;-72
2022/06/19 05:58:57;;;;;;;4.15;1.35;;;;;;;25.95;73.60;99727.31;5227247;28;20025;-72
2022/06/19 06:01:28;;;;;;;2.33;1.40;;;;;;;26.02;72.49;99699.66;5225510;28;20032;-71
2022/06/19 06:03:59;;;;;;;5.07;1.48;;;;;;;25.48;74.27;99699.63;5232632;28;20032;-73
2022/06/19 06:06:31;;;;;;;2.97;1.40;;;;;;;26.10;73.79;99734.47;5233447;28;20093;-72
2022/06/19 06:09:02;;;;;;;2.50;1.40;;;;;;;26.40;72.50;99747.06;5231892;28;20457;-72
2022/06/19 06:11:32;;;;;;;6.57;1.70;;;;;;;26.73;70.62;99710.22;5233808;28;20111;-72
2022/06/19 06:14:02;;;;;;;4.15;1.75;;;;;;;26.38;71.38;99694.66;5231640;28;20021;-72
2022/06/19 06:16:33;;;;;;;5.97;1.70;;;;;;;26.48;70.40;99706.00;5233953;28;20035;-72
2022/06/19 06:19:04;;;;;;;3.15;1.58;;;;;;;26.24;72.45;99736.44;5233938;28;20026;-73
2022/06/19 06:21:34;;;;;;;3.65;1.45;;;;;;;26.27;71.17;99713.78;5231115;28;20029;-72
2022/06/19 06:24:05;;;;;;;4.00;1.60;;;;;;;26.72;70.50;99709.38;5233376;28;20032;-72
2022/06/19 06:26:35;;;;;;;3.95;1.67;;;;;;;26.61;70.95;99733.06;5230657;28;20207;-71
2022/06/19 06:29:07;;;;;;;2.60;1.48;;;;;;;26.31;71.53;99707.91;5226583;28;20386;-72
2022/06/19 06:31:37;;;;;;;3.85;1.42;;;;;;;26.93;70.46;99707.72;5226092;28;20033;-72
2022/06/19 06:34:08;;;;;;;3.70;1.42;;;;;;;27.28;70.00;99717.03;5230125;28;20398;-72
2022/06/19 06:36:38;;;;;;;3.70;1.50;;;;;;;27.06;69.59;99707.09;5234375;28;20059;-72
2022/06/19 06:39:09;;;;;;;3.58;1.50;;;;;;;27.61;68.63;99700.41;5226139;28;20119;-72
2022/06/19 06:41:39;;;;;;;5.43;1.63;;;;;;;27.68;68.36;99724.69;5234041;28;20075;-72
2022/06/19 06:44:14;;;;;;;4.45;1.35;;;;;;;27.60;68.21;99739.03;5212396;28;20035;-73
2022/06/19 06:46:44;;;;;;;2.47;1.20;;;;;;;27.51;67.79;99721.34;5229519;28;20021;-74
2022/06/19 06:49:14;;;;;;;2.67;1.40;;;;;;;28.41;66.61;99729.09;5232918;28;20032;-72
2022/06/19 06:51:45;;;;;;;2.92;1.45;;;;;;;28.20;66.66;99733.53;5230893;28;20013;-72
2022/06/19 06:54:15;;;;;;;2.28;1.55;;;;;;;28.54;66.34;99718.50;5233219;28;20032;-72
2022/06/19 06:56:46;;;;;;;5.32;1.65;;;;;;;28.69;66.09;99727.38;5230468;28;20563;-72
2022/06/19 06:59:16;;;;;;;4.05;1.88;;;;;;;28.62;65.30;99726.44;5225005;28;20389;-71
2022/06/19 07:01:46;;;;;;;4.25;1.52;;;;;;;29.28;63.60;99718.03;5224894;28;20030;-72
2022/06/19 07:04:17;;;;;;;5.72;1.42;;;;;;;29.54;63.03;99729.09;5211556;28;20223;-72
2022/06/19 07:06:47;;;;;;;2.78;1.63;;;;;;;29.66;63.45;99731.03;5231252;28;20033;-72
2022/06/19 07:09:17;;;;;;;3.28;1.52;;;;;;;29.87;63.06;99733.66;5230155;28;20119;-72
2022/06/19 07:11:48;;;;;;;4.38;1.50;;;;;;;30.33;62.18;99737.47;5231281;28;20016;-72
2022/06/19 07:14:19;;;;;;;5.18;1.85;;;;;;;30.01;61.24;99742.66;5229971;28;20032;-72
2022/06/19 07:16:49;;;;;;;3.08;1.70;;;;;;;29.59;62.88;99715.84;5232640;28;20489;-72
2022/06/19 07:19:19;;;;;;;4.82;1.80;;;;;;;30.18;61.43;99734.09;5231746;28;20374;-72
2022/06/19 07:21:50;;;;;;;4.80;1.88;;;;;;;30.27;61.01;99726.66;5231634;28;20025;-72
2022/06/19 07:24:20;;;;;;;3.93;1.50;;;;;;;31.04;59.36;99718.81;5232018;28;20032;-72
2022/06/19 07:26:51;;;;;;;4.40;1.60;;;;;;;31.42;59.69;99721.81;5232043;28;20710;-72
2022/06/19 07:29:21;;;;;;;3.05;1.55;;;;;;;31.21;58.96;99716.59;5225173;28;20303;-72
2022/06/19 07:31:53;;;;;;;4.22;1.50;;;;;;;30.59;60.20;99716.03;5225264;28;20056;-72
2022/06/19 07:34:23;;;;;;;4.68;1.70;;;;;;;31.07;59.74;99720.28;5231051;28;20025;-72
2022/06/19 07:36:54;;;;;;;3.15;1.95;;;;;;;31.35;58.55;99724.50;5230603;28;20289;-72
2022/06/19 07:39:24;;;;;;;3.15;1.50;;;;;;;32.11;57.83;99706.75;5231438;28;20028;-71
2022/06/19 07:41:54;;;;;;;3.35;1.60;;;;;;;31.76;58.24;99705.38;5213446;28;20024;-72
2022/06/19 07:44:25;;;;;;;5.57;1.87;;;;;;;30.01;60.35;99710.31;5231741;28;20059;-73
2022/06/19 07:52:33;;;;;;;4.75;1.70;;;;;;;31.62;58.77;99715.34;5214870;28;20079;-72
2022/06/19 07:55:05;;;;;;;4.38;1.58;;;;;;;32.12;57.57;99722.78;5225159;28;20020;-72
2022/06/19 07:57:37;;;;;;;2.83;1.50;;;;;;;31.37;58.25;99727.81;5219553;28;20020;-72
2022/06/19 08:00:11;;;;;;;2.92;1.45;;;;;;;32.09;57.02;99727.78;5224889;28;20035;-73
2022/06/19 08:02:41;;;;;;;5.83;1.60;;;;;;;32.41;56.74;99727.66;5226756;28;20035;-72
2022/06/19 08:05:12;;;;;;;5.78;1.48;;;;;;;32.83;57.00;99737.09;5214352;28;20398;-72
2022/06/19 08:07:43;;;;;;;2.78;1.40;;;;;;;32.62;56.82;99727.41;5230643;28;20466;-73
2022/06/19 08:10:23;;;;;;;4.97;1.50;;;;;;;33.35;54.73;99710.50;5227967;28;20110;-72
2022/06/19 08:12:54;;;;;;;3.53;1.27;;;;;;;33.83;53.40;99723.22;5227895;28;20032;-72
2022/06/19 08:15:25;;;;;;;7.35;1.40;;;;;;;34.04;53.50;99724.69;5227240;28;20509;-71
2022/06/19 08:17:56;;;;;;;6.45;1.63;;;;;;;32.79;54.96;99727.75;5214687;28;20032;-73
2022/06/19 08:20:27;;;;;;;4.25;1.52;;;;;;;32.56;55.03;99724.72;5202949;28;20441;-72
2022/06/19 08:22:58;;;;;;;4.57;1.48;;;;;;;32.84;55.03;99742.28;5228206;28;20051;-72
2022/06/19 08:25:28;;;;;;;3.33;1.33;;;;;;;33.18;54.48;99729.13;5223387;28;20028;-72
2022/06/19 08:28:00;;;;;;;5.72;1.50;;;;;;;33.41;53.73;99732.13;5223850;28;20032;-72
2022/06/19 08:30:35;;;;;;;3.35;1.58;;;;;;;34.05;53.37;99726.34;5222352;28;20508;-72
2022/06/19 08:33:07;;;;;;;4.55;1.50;;;;;;;33.29;54.20;99733.06;5207767;28;20040;-72
2022/06/19 08:35:43;;;;;;;4.53;1.42;;;;;;;32.32;56.17;99747.06;5255584;22;20051;-74
2022/06/19 08:38:20;;;;;;;6.75;1.33;;;;;;;33.34;53.46;99738.66;5219559;28;20055;-73
2022/06/19 08:41:00;;;;;;;5.85;1.60;;;;;;;32.53;54.60;99753.03;5226529;28;20047;-73
2022/06/19 08:43:47;;;;;;;3.47;1.52;;;;;;;32.75;53.06;99759.00;5224555;28;20375;-74
2022/06/19 08:46:51;;;;;;;4.38;1.52;;;;;;;32.65;53.33;99758.59;5208735;28;20021;-73
2022/06/19 08:49:43;;;;;;;3.88;1.50;;;;;;;33.48;52.81;99753.78;5186287;28;20461;-73
2022/06/19 08:52:27;;;;;;;4.05;1.40;;;;;;;33.56;52.03;99748.06;5191765;28;20548;-74
2022/06/19 08:55:05;;;;;;;5.40;1.50;;;;;;;33.79;51.78;99754.56;5193109;28;20025;-74
2022/06/19 08:58:00;;;;;;;6.30;1.77;;;;;;;34.23;51.06;99739.94;5200927;28;20030;-74
2022/06/19 09:00:46;;;;;;;4.13;1.55;;;;;;;33.19;52.67;99747.13;5200475;28;20030;-74
2022/06/19 09:06:39;;;;;;;4.70;1.85;;;;;;;33.50;52.51;99729.97;5202496;28;20109;-73
2022/06/19 09:09:22;;;;;;;4.45;1.75;;;;;;;33.86;51.57;99735.50;5198059;28;20084;-73
2022/06/19 09:12:10;;;;;;;6.55;1.70;;;;;;;33.11;52.21;99727.56;5208548;28;20048;-74
2022/06/19 09:14:45;;;;;;;5.72;1.50;;;;;;;33.47;52.69;99735.84;5185902;28;20049;-74
2022/06/19 09:17:25;;;;;;;7.78;1.77;;;;;;;34.30;51.06;99736.09;5211696;28;20477;-74
2022/06/19 09:20:11;;;;;;;6.85;1.83;;;;;;;33.72;52.17;99752.97;5195836;28;20094;-74
2022/06/19 09:22:53;;;;;;;6.70;2.00;;;;;;;33.59;51.42;99764.72;5191696;28;20068;-74
2022/06/19 09:25:48;;;;;;;8.73;2.20;;;;;;;33.85;50.72;99780.78;5209516;28;20044;-74
2022/06/19 09:28:25;;;;;;;6.23;1.80;;;;;;;34.28;50.95;99788.94;5201371;28;20047;-73
2022/06/19 09:31:14;;;;;;;7.50;1.98;;;;;;;33.34;51.47;99801.00;5206887;28;20017;-74
2022/06/19 09:34:05;;;;;;;11.18;2.25;;;;;;;32.78;53.43;99796.47;5184463;28;20038;-74
2022/06/19 09:37:05;;;;;;;7.78;2.05;;;;;;;32.45;53.44;99798.44;5200394;28;20096;-73
2022/06/19 09:39:54;;;;;;;10.95;2.22;;;;;;;32.74;53.20;99798.78;5207602;28;20041;-73
2022/06/19 09:42:50;;;;;;;6.90;1.90;;;;;;;32.02;54.11;99806.22;5198611;28;20040;-73
2022/06/19 09:45:44;;;;;;;9.55;2.50;;;;;;;31.80;54.15;99810.19;5206294;28;20136;-71
2022/06/19 09:48:30;;;;;;;7.38;2.22;;;;;;;31.35;55.03;99824.47;5205996;28;20025;-72
2022/06/19 09:51:06;;;;;;;6.70;2.05;;;;;;;31.05;56.75;99828.50;5184998;28;20558;-74
2022/06/19 09:53:50;;;;;;;7.13;2.10;;;;;;;32.20;53.91;99836.19;5212611;28;20143;-73
2022/06/19 09:56:46;;;;;;;6.72;2.35;;;;;;;32.26;53.34;99848.91;5207755;28;20040;-73
2022/06/19 09:59:35;;;;;;;7.63;2.65;;;;;;;32.36;53.47;99868.22;5201106;28;20037;-72
2022/06/19 10:02:23;;;;;;;8.23;2.40;;;;;;;31.89;53.91;99876.53;5203954;28;20030;-73
2022/06/19 10:05:28;;;;;;;7.93;2.15;;;;;;;31.76;54.28;99876.53;5208320;28;20048;-74
2022/06/19 10:08:13;;;;;;;8.68;2.47;;;;;;;31.00;54.98;99893.09;5204270;28;20037;-74
2022/06/19 10:11:00;;;;;;;8.23;2.55;;;;;;;31.13;55.91;99913.94;5195023;28;20040;-73
2022/06/19 10:13:43;;;;;;;8.35;2.20;;;;;;;29.79;57.18;99911.69;5201176;28;20121;-73
2022/06/19 10:16:27;;;;;;;9.00;2.03;;;;;;;29.81;57.57;99906.94;5205380;28;20040;-75
2022/06/19 10:19:13;;;;;;;6.38;2.33;;;;;;;29.36;59.17;99920.72;5186340;28;20252;-73
2022/06/19 10:22:15;;;;;;;;;;;;;;;29.18;58.40;99923.00;5188854;28;20080;-73
2022/06/19 10:25:07;;;;;;;11.45;2.65;;;;;;;28.85;60.13;99905.56;5205469;28;19960;-74
2022/06/19 10:27:49;;;;;;;9.35;2.60;;;;;;;28.85;59.31;99896.63;5203540;28;20025;-74
2022/06/19 10:30:26;;;;;;;8.20;2.28;;;;;;;29.16;58.88;99902.66;5177176;28;20045;-73
2022/06/19 10:33:10;;;;;;;7.47;2.30;;;;;;;29.14;59.72;99894.78;5190860;28;20044;-74
2022/06/19 10:35:58;;;;;;;10.80;2.40;;;;;;;29.33;59.33;99907.66;5201477;28;20519;-74
2022/06/19 10:38:56;;;;;;;6.30;2.42;;;;;;;29.42;59.26;99909.19;5206712;28;20036;-74
2022/06/19 10:42:01;;;;;;;8.40;2.30;;;;;;;29.29;58.57;99903.69;5209286;28;20044;-73
2022/06/19 10:44:53;;;;;;;7.68;2.45;;;;;;;28.79;59.73;99913.53;5212751;28;20059;-74
2022/06/19 10:47:47;;;;;;;10.70;2.67;;;;;;;28.64;59.80;99895.75;5190685;28;20108;-73
2022/06/19 10:50:53;;;;;;;9.25;2.58;;;;;;;28.60;60.09;99911.41;5194755;28;20043;-72
2022/06/19 10:53:42;;;;;;;11.73;2.53;;;;;;;28.28;60.48;99914.41;5186813;28;20502;-74
2022/06/19 10:56:54;;;;;;;9.52;2.70;;;;;;;28.79;60.71;99919.78;5201760;28;20052;-72
2022/06/19 10:59:25;;;;;;;10.25;2.65;;;;;;;28.60;59.17;99926.72;5198290;28;20135;-73
2022/06/19 11:05:03;;;;;;;9.73;2.80;;;;;;;28.08;60.84;99920.47;5207229;28;20059;-73
2022/06/19 11:07:33;;;;;;;9.70;2.80;;;;;;;27.97;60.20;99905.63;5186319;28;20037;-74
2022/06/19 11:10:26;;;;;;;10.93;2.65;;;;;;;28.15;60.45;99921.44;5205236;28;20490;-74
2022/06/19 11:12:58;;;;;;;8.43;2.50;;;;;;;27.86;61.28;99927.56;5187872;28;20276;-74
2022/06/19 11:15:40;;;;;;;9.63;2.47;;;;;;;27.72;61.29;99920.28;5208169;28;20028;-73
2022/06/19 11:18:21;;;;;;;9.73;2.60;;;;;;;27.78;61.45;99905.28;5197062;28;20491;-72
2022/06/19 11:20:57;;;;;;;13.45;2.85;;;;;;;28.30;60.55;99917.75;5202871;28;20070;-74
2022/06/19 11:23:32;;;;;;;10.27;2.80;;;;;;;28.23;60.23;99918.66;5201610;28;20060;-74
2022/06/19 11:26:16;;;;;;;9.93;2.30;;;;;;;28.23;60.78;99930.25;5185251;28;20278;-74
2022/06/19 11:28:55;;;;;;;10.30;2.42;;;;;;;28.12;60.78;99922.63;5198654;28;20025;-74
2022/06/19 11:31:34;;;;;;;11.20;2.45;;;;;;;27.75;60.92;99936.03;5180980;28;20025;-74
2022/06/19 11:37:28;;;;;;;12.18;2.80;;;;;;;28.15;60.69;99946.44;5203159;28;20368;-72
2022/06/19 11:39:59;;;;;;;12.35;2.75;;;;;;;28.19;60.57;99941.56;5188208;28;20021;-74
2022/06/19 11:42:32;;;;;;;10.65;2.58;;;;;;;28.12;61.42;99937.94;5202792;28;20511;-70
2022/06/19 11:45:14;;;;;;;8.80;2.70;;;;;;;28.06;60.26;99941.31;5202752;28;20549;-73
2022/06/19 11:47:46;;;;;;;7.30;2.50;;;;;;;28.46;60.37;99931.06;5203679;28;20049;-73
2022/06/19 11:50:28;;;;;;;10.18;2.58;;;;;;;28.61;59.92;99937.28;5203124;28;20482;-72
2022/06/19 11:53:14;;;;;;;15.32;3.00;;;;;;;28.33;59.30;99925.47;5186532;28;20044;-75
2022/06/19 11:56:09;;;;;;;10.27;2.60;;;;;;;28.27;59.06;99918.13;5187588;28;20051;-75
2022/06/19 11:58:45;;;;;;;9.23;2.63;;;;;;;28.49;60.01;99914.56;5186917;28;20410;-74
2022/06/19 12:01:21;;;;;;;6.63;2.20;;;;;;;28.33;59.76;99914.72;5181331;28;20870;-74
2022/06/19 12:04:00;;;;;;;9.30;2.40;;;;;;;27.67;59.24;99911.03;5205912;28;20128;-75
2022/06/19 12:06:48;;;;;;;9.60;2.38;;;;;;;27.58;59.39;99922.88;5189463;28;20064;-74
2022/06/19 12:09:42;;;;;;;8.80;2.50;;;;;;;27.76;60.07;99928.81;5182115;28;20096;-73
2022/06/19 12:12:13;;;;;;;8.55;2.63;;;;;;;27.50;59.98;99915.69;5202656;28;20483;-73
2022/06/19 12:14:46;;;;;;;8.30;2.75;;;;;;;27.61;59.73;99917.97;5209548;28;20068;-74
2022/06/19 12:17:17;;;;;;;13.80;2.72;;;;;;;27.80;59.45;99901.38;5191252;28;20496;-72
2022/06/19 12:19:54;;;;;;;12.07;2.78;;;;;;;27.71;59.76;99905.19;5207284;28;20110;-73
2022/06/19 12:22:52;;;;;;;8.63;2.30;;;;;;;27.61;59.77;99891.09;5207277;28;20033;-74
2022/06/19 12:25:28;;;;;;;10.98;2.97;;;;;;;27.26;60.22;99864.00;5186083;28;20072;-74